createdAt,value
2022-08-05T00:00:46.517Z,17.09
2022-08-05T00:03:16.687Z,17.13
2022-08-05T00:06:05.672Z,17.05
2022-08-05T00:08:34.569Z,16.77
2022-08-05T00:11:23.733Z,16.51
2022-08-05T00:13:54.908Z,16.50
2022-08-05T00:16:36.174Z,16.67
2022-08-05T00:19:08.089Z,16.71
2022-08-05T00:21:35.710Z,16.56
2022-08-05T00:24:10.622Z,16.62
2022-08-05T00:26:38.340Z,16.54
2022-08-05T00:29:04.830Z,16.68
2022-08-05T00:31:53.986Z,16.66
2022-08-05T00:34:54.080Z,16.77
2022-08-05T00:37:10.602Z,16.47
2022-08-05T00:39:57.211Z,16.46
2022-08-05T00:42:32.507Z,16.84
2022-08-05T00:44:59.760Z,16.56
2022-08-05T00:47:26.443Z,16.51
2022-08-05T00:50:12.925Z,16.40
2022-08-05T00:52:40.093Z,16.74
2022-08-05T00:55:06.835Z,16.49
2022-08-05T00:57:55.303Z,16.50
2022-08-05T01:00:20.016Z,16.83
2022-08-05T01:02:50.197Z,16.46
2022-08-05T01:05:16.748Z,16.51
2022-08-05T01:08:30.351Z,16.37
2022-08-05T01:10:41.753Z,16.21
2022-08-05T01:13:58.951Z,16.32
2022-08-05T01:16:38.348Z,16.47
2022-08-05T01:19:46.117Z,16.48
2022-08-05T01:22:27.982Z,16.15
2022-08-05T01:25:13.723Z,16.23
2022-08-05T01:28:00.073Z,16.60
2022-08-05T01:30:33.620Z,16.74
2022-08-05T01:33:06.145Z,16.75
2022-08-05T01:35:50.635Z,16.42
2022-08-05T01:38:27.291Z,16.83
2022-08-05T01:41:01.802Z,16.61
2022-08-05T01:43:29.682Z,16.31
2022-08-05T01:45:57.638Z,16.57
2022-08-05T01:48:27.069Z,16.56
2022-08-05T01:50:55.305Z,16.35
2022-08-05T01:53:54.971Z,16.25
2022-08-05T01:56:10.597Z,16.15
2022-08-05T01:58:40.923Z,15.92
2022-08-05T02:01:14.893Z,15.85
2022-08-05T02:03:53.058Z,15.68
2022-08-05T02:06:37.331Z,15.69
2022-08-05T02:09:05.860Z,15.71
2022-08-05T02:11:52.636Z,15.71
2022-08-05T02:14:32.171Z,15.84
2022-08-05T02:17:06.857Z,15.76
2022-08-05T02:19:47.070Z,15.79
2022-08-05T02:22:25.561Z,15.82
2022-08-05T02:25:02.929Z,15.91
2022-08-05T02:27:57.957Z,15.81
2022-08-05T02:30:20.217Z,15.80
2022-08-05T02:32:51.349Z,15.73
2022-08-05T02:35:28.321Z,15.80
2022-08-05T02:38:02.304Z,15.62
2022-08-05T02:40:31.410Z,15.57
2022-08-05T02:42:59.705Z,15.60
2022-08-05T02:45:28.515Z,15.63
2022-08-05T02:48:14.602Z,15.56
2022-08-05T02:50:47.120Z,15.57
2022-08-05T02:53:19.208Z,15.54
2022-08-05T02:56:00.082Z,15.49
2022-08-05T02:58:30.244Z,15.50
2022-08-05T03:01:00.865Z,15.55
2022-08-05T03:03:33.855Z,15.52
2022-08-05T03:06:54.060Z,15.59
2022-08-05T03:08:52.148Z,15.47
2022-08-05T03:11:56.015Z,15.70
2022-08-05T03:14:08.291Z,15.70
2022-08-05T03:16:35.625Z,15.58
2022-08-05T03:19:17.202Z,15.58
2022-08-05T03:21:49.974Z,15.58
2022-08-05T03:24:30.228Z,15.51
2022-08-05T03:26:59.361Z,15.43
2022-08-05T03:29:45.165Z,15.45
2022-08-05T03:32:14.318Z,15.72
2022-08-05T03:34:41.623Z,15.57
2022-08-05T03:37:08.372Z,15.49
2022-08-05T03:39:57.823Z,15.64
2022-08-05T03:42:23.981Z,15.70
2022-08-05T03:44:53.696Z,16.00
2022-08-05T03:47:20.132Z,15.68
2022-08-05T03:49:51.838Z,15.73
2022-08-05T03:52:38.609Z,15.67
2022-08-05T03:56:04.296Z,15.68
2022-08-05T03:58:08.959Z,16.02
2022-08-05T04:00:38.477Z,16.00
2022-08-05T04:03:14.834Z,16.27
2022-08-05T04:05:54.044Z,16.23
2022-08-05T04:08:34.905Z,15.87
2022-08-05T04:11:04.320Z,16.02
2022-08-05T04:13:50.036Z,15.94
2022-08-05T04:16:24.250Z,15.98
2022-08-05T04:18:54.448Z,16.00
2022-08-05T04:22:10.006Z,16.10
2022-08-05T04:24:08.940Z,15.50
2022-08-05T04:26:40.732Z,15.51
2022-08-05T04:29:07.622Z,15.89
2022-08-05T04:31:38.812Z,16.03
2022-08-05T04:34:18.397Z,16.17
2022-08-05T04:36:52.567Z,15.96
2022-08-05T04:39:20.397Z,15.64
2022-08-05T04:41:48.342Z,15.86
2022-08-05T04:44:21.049Z,16.09
2022-08-05T04:46:50.827Z,16.11
2022-08-05T04:49:19.278Z,15.67
2022-08-05T04:52:05.083Z,15.50
2022-08-05T04:54:34.444Z,15.49
2022-08-05T04:57:01.231Z,15.29
2022-08-05T04:59:38.424Z,15.12
2022-08-05T05:02:37.225Z,15.05
2022-08-05T05:04:52.545Z,15.19
2022-08-05T05:07:29.349Z,15.32
2022-08-05T05:09:56.050Z,15.15
2022-08-05T05:12:24.263Z,15.45
2022-08-05T05:14:54.088Z,15.46
2022-08-05T05:17:24.187Z,15.36
2022-08-05T05:19:54.296Z,15.51
2022-08-05T05:22:22.671Z,15.82
2022-08-05T05:24:56.973Z,15.97
2022-08-05T05:27:44.376Z,15.96
2022-08-05T05:30:28.796Z,15.79
2022-08-05T05:33:00.255Z,16.07
2022-08-05T05:35:37.629Z,16.16
2022-08-05T05:38:08.929Z,16.12
2022-08-05T05:40:38.545Z,16.26
2022-08-05T05:43:10.254Z,16.30
2022-08-05T05:45:36.852Z,16.49
2022-08-05T05:48:16.082Z,16.49
2022-08-05T05:50:44.290Z,16.68
2022-08-05T05:53:21.937Z,16.78
2022-08-05T05:55:52.125Z,16.34
2022-08-05T05:58:31.904Z,16.61
2022-08-05T06:01:12.147Z,16.37
2022-08-05T06:04:01.138Z,16.35
2022-08-05T06:06:27.825Z,16.57
2022-08-05T06:08:57.112Z,16.74
2022-08-05T06:11:23.592Z,16.67
2022-08-05T06:13:50.443Z,16.37
2022-08-05T06:16:29.865Z,16.34
2022-08-05T06:19:00.771Z,16.20
2022-08-05T06:21:36.131Z,16.25
2022-08-05T06:24:06.304Z,16.55
2022-08-05T06:26:39.344Z,16.80
2022-08-05T06:29:23.714Z,16.63
2022-08-05T06:31:52.598Z,16.54
2022-08-05T06:34:19.887Z,16.55
2022-08-05T06:36:57.851Z,16.69
2022-08-05T06:39:27.243Z,16.90
2022-08-05T06:41:56.340Z,16.83
2022-08-05T06:44:25.231Z,17.26
2022-08-05T06:46:52.878Z,16.82
2022-08-05T06:50:00.453Z,16.89
2022-08-05T06:52:08.105Z,16.95
2022-08-05T06:54:54.555Z,17.68
2022-08-05T06:58:03.889Z,17.46
2022-08-05T07:00:09.692Z,17.64
2022-08-05T07:02:43.625Z,18.22
2022-08-05T07:05:14.118Z,18.41
2022-08-05T07:07:48.833Z,17.55
2022-08-05T07:10:16.520Z,17.67
2022-08-05T07:13:02.831Z,17.44
2022-08-05T07:16:01.644Z,17.68
2022-08-05T07:18:31.854Z,17.57
2022-08-05T07:20:58.606Z,17.62
2022-08-05T07:23:31.472Z,17.40
2022-08-05T07:25:57.966Z,17.22
2022-08-05T07:28:25.204Z,17.24
2022-08-05T07:30:52.966Z,17.26
2022-08-05T07:33:36.697Z,17.69
2022-08-05T07:36:20.900Z,17.60
2022-08-05T07:38:48.932Z,17.08
2022-08-05T07:42:08.619Z,17.17
2022-08-05T07:44:14.046Z,17.38
2022-08-05T07:46:41.251Z,17.36
2022-08-05T07:49:14.665Z,17.37
2022-08-05T07:51:52.913Z,17.18
2022-08-05T07:54:30.704Z,17.24
2022-08-05T07:57:22.456Z,17.37
2022-08-05T07:59:48.946Z,17.05
2022-08-05T08:02:17.608Z,16.85
2022-08-05T08:04:49.374Z,16.92
2022-08-05T08:07:22.478Z,16.76
2022-08-05T08:09:52.012Z,16.98
2022-08-05T08:12:35.103Z,17.05
2022-08-05T08:15:15.767Z,17.39
2022-08-05T08:17:49.942Z,17.43
2022-08-05T08:21:01.011Z,17.26
2022-08-05T08:23:59.934Z,17.23
2022-08-05T08:25:59.097Z,17.13
2022-08-05T08:28:36.510Z,17.32
2022-08-05T08:31:17.445Z,17.23
2022-08-05T08:33:44.849Z,17.20
2022-08-05T08:36:38.872Z,17.27
2022-08-05T08:38:58.289Z,17.38
2022-08-05T08:41:51.119Z,17.33
2022-08-05T08:45:19.288Z,17.55
2022-08-05T08:47:47.048Z,17.49
2022-08-05T08:50:22.950Z,17.27
2022-08-05T08:52:51.869Z,17.88
2022-08-05T08:56:01.964Z,17.53
2022-08-05T08:58:07.308Z,17.92
2022-08-05T09:00:36.007Z,17.94
2022-08-05T09:03:06.482Z,18.17
2022-08-05T09:05:38.432Z,18.90
2022-08-05T09:08:19.837Z,18.30
2022-08-05T09:10:53.280Z,18.14
2022-08-05T09:13:19.934Z,18.35
2022-08-05T09:15:50.900Z,18.75
2022-08-05T09:18:17.571Z,18.62
2022-08-05T09:20:47.191Z,18.27
2022-08-05T09:23:19.601Z,18.04
2022-08-05T09:26:06.202Z,17.87
2022-08-05T09:28:34.942Z,18.02
2022-08-05T09:31:23.442Z,18.15
2022-08-05T09:33:58.494Z,18.31
2022-08-05T09:36:54.847Z,18.80
2022-08-05T09:39:24.523Z,18.69
2022-08-05T09:42:07.803Z,18.36
2022-08-05T09:44:35.979Z,18.73
2022-08-05T09:47:12.783Z,19.03
2022-08-05T09:50:02.043Z,19.60
2022-08-05T09:52:36.384Z,19.22
2022-08-05T09:55:56.650Z,19.55
2022-08-05T09:57:59.977Z,19.21
2022-08-05T10:00:27.833Z,18.61
2022-08-05T10:02:58.106Z,18.67
2022-08-05T10:05:32.780Z,18.76
2022-08-05T10:08:35.229Z,18.70
2022-08-05T10:10:50.189Z,19.02
2022-08-05T10:13:44.028Z,18.66
2022-08-05T10:16:42.019Z,18.47
2022-08-05T10:19:23.770Z,18.23
2022-08-05T10:22:08.996Z,18.41
2022-08-05T10:24:42.265Z,18.62
2022-08-05T10:27:14.319Z,18.51
2022-08-05T10:30:06.300Z,18.35
2022-08-05T10:32:51.847Z,18.40
2022-08-05T10:35:17.669Z,19.11
2022-08-05T10:37:45.274Z,19.28
2022-08-05T10:40:27.915Z,18.72
2022-08-05T10:43:01.558Z,18.21
2022-08-05T10:45:39.695Z,17.96
2022-08-05T10:48:36.114Z,17.67
2022-08-05T10:51:22.022Z,17.79
2022-08-05T10:53:55.134Z,17.87
2022-08-05T10:56:27.733Z,17.97
2022-08-05T10:58:55.368Z,18.49
2022-08-05T11:01:54.513Z,18.51
2022-08-05T11:04:26.210Z,18.06
2022-08-05T11:07:04.425Z,18.28
2022-08-05T11:09:45.331Z,17.90
2022-08-05T11:12:37.283Z,18.35
2022-08-05T11:15:20.453Z,18.18
2022-08-05T11:18:00.279Z,18.13
2022-08-05T11:20:47.495Z,18.39
2022-08-05T11:24:05.717Z,18.55
2022-08-05T11:26:40.444Z,18.19
2022-08-05T11:29:42.690Z,18.02
2022-08-05T11:32:41.591Z,17.85
2022-08-05T11:35:08.137Z,17.41
2022-08-05T11:38:26.118Z,17.62
2022-08-05T11:41:00.810Z,17.64
2022-08-05T11:44:01.070Z,17.47
2022-08-05T11:46:32.368Z,17.28
2022-08-05T11:49:01.383Z,17.57
2022-08-05T11:51:49.031Z,17.68
2022-08-05T11:54:34.367Z,17.66
2022-08-05T11:57:07.908Z,17.87
2022-08-05T11:59:50.065Z,18.18
2022-08-05T12:02:24.286Z,18.36
2022-08-05T12:04:59.683Z,18.23
2022-08-05T12:08:09.100Z,18.15
2022-08-05T12:10:19.535Z,18.61
2022-08-05T12:12:58.452Z,18.84
2022-08-05T12:15:35.743Z,18.84
2022-08-05T12:18:10.641Z,18.88
2022-08-05T12:20:38.766Z,18.25
2022-08-05T12:23:10.702Z,18.36
2022-08-05T12:25:56.803Z,17.89
2022-08-05T12:28:39.357Z,18.06
2022-08-05T12:31:06.313Z,18.19
2022-08-05T12:33:36.768Z,18.62
2022-08-05T12:36:08.187Z,18.71
2022-08-05T12:38:39.766Z,19.17
2022-08-05T12:41:14.183Z,18.43
2022-08-05T12:43:51.253Z,18.68
2022-08-05T12:46:28.773Z,19.13
2022-08-05T12:49:00.896Z,19.88
2022-08-05T12:52:13.619Z,20.28
2022-08-05T12:54:26.492Z,19.77
2022-08-05T12:57:02.755Z,19.60
2022-08-05T13:00:08.749Z,19.93
2022-08-05T13:02:27.471Z,19.81
2022-08-05T13:04:57.314Z,20.11
2022-08-05T13:07:57.123Z,19.99
2022-08-05T13:10:15.112Z,20.30
2022-08-05T13:12:51.220Z,20.56
2022-08-05T13:15:41.632Z,21.47
2022-08-05T13:18:18.802Z,20.29
2022-08-05T13:20:47.250Z,20.79
2022-08-05T13:23:16.429Z,21.47
2022-08-05T13:25:51.831Z,21.73
2022-08-05T13:28:25.828Z,22.16
2022-08-05T13:30:53.276Z,24.66
2022-08-05T13:34:23.605Z,28.03
2022-08-05T13:36:10.183Z,29.67
2022-08-05T13:38:38.451Z,30.69
2022-08-05T13:41:10.861Z,29.70
2022-08-05T13:43:45.098Z,25.25
2022-08-05T13:46:38.033Z,26.47
2022-08-05T13:49:10.486Z,28.74
2022-08-05T13:51:41.669Z,29.23
2022-08-05T13:54:37.827Z,28.77
2022-08-05T13:57:04.614Z,26.46
2022-08-05T13:59:32.855Z,25.89
2022-08-05T14:02:00.973Z,25.11
2022-08-05T14:04:52.312Z,23.41
2022-08-05T14:07:56.255Z,24.62
2022-08-05T14:10:12.548Z,26.80
2022-08-05T14:12:42.823Z,27.28
2022-08-05T14:16:05.605Z,28.50
2022-08-05T14:17:59.713Z,29.16
2022-08-05T14:20:29.380Z,31.39
2022-08-05T14:22:56.136Z,26.64
2022-08-05T14:25:22.763Z,26.24
2022-08-05T14:27:55.365Z,25.12
2022-08-05T14:30:22.022Z,23.17
2022-08-05T14:32:49.014Z,23.40
2022-08-05T14:35:16.267Z,23.67
2022-08-05T14:37:52.112Z,22.83
2022-08-05T14:40:21.708Z,22.29
2022-08-05T14:42:51.229Z,22.08
2022-08-05T14:45:18.312Z,21.73
2022-08-05T14:48:04.007Z,22.10
2022-08-05T14:50:31.739Z,21.69
2022-08-05T14:52:59.565Z,21.50
2022-08-05T14:55:38.630Z,21.90
2022-08-05T14:58:11.847Z,22.14
2022-08-05T15:00:58.577Z,21.74
2022-08-05T15:03:33.887Z,21.52
2022-08-05T15:06:07.453Z,21.70
2022-08-05T15:09:01.073Z,20.85
2022-08-05T15:11:50.978Z,21.45
2022-08-05T15:14:33.217Z,21.13
2022-08-05T15:16:59.927Z,20.40
2022-08-05T15:19:26.469Z,20.18
2022-08-05T15:21:53.286Z,19.72
2022-08-05T15:24:24.507Z,19.37
2022-08-05T15:26:51.227Z,19.76
2022-08-05T15:29:17.784Z,19.39
2022-08-05T15:31:49.743Z,19.65
2022-08-05T15:34:32.172Z,19.14
2022-08-05T15:37:03.495Z,19.14
2022-08-05T15:41:01.898Z,18.84
2022-08-05T15:42:50.340Z,17.90
2022-08-05T15:45:06.288Z,17.46
2022-08-05T15:47:32.948Z,16.84
2022-08-05T15:50:02.763Z,16.38
2022-08-05T15:52:52.816Z,16.55
2022-08-05T15:55:20.128Z,16.51
2022-08-05T15:57:52.095Z,16.50
2022-08-05T16:00:30.503Z,16.86
2022-08-05T16:03:06.636Z,16.83
2022-08-05T16:05:33.681Z,17.38
2022-08-05T16:08:00.833Z,17.50
2022-08-05T16:10:27.953Z,17.42
2022-08-05T16:12:56.273Z,17.76
2022-08-05T16:15:23.897Z,17.92
2022-08-05T16:17:57.482Z,17.74
2022-08-05T16:20:25.599Z,18.08
2022-08-05T16:22:54.508Z,18.80
2022-08-05T16:25:21.023Z,22.05
2022-08-05T16:28:02.250Z,22.99
2022-08-05T16:30:33.447Z,23.09
2022-08-05T16:33:00.972Z,21.70
2022-08-05T16:35:32.560Z,20.52
2022-08-05T16:38:03.627Z,19.89
2022-08-05T16:40:52.024Z,18.85
2022-08-05T16:43:23.717Z,18.23
2022-08-05T16:46:06.703Z,18.03
2022-08-05T16:48:36.060Z,18.42
2022-08-05T16:51:03.791Z,18.65
2022-08-05T16:54:04.148Z,19.04
2022-08-05T16:56:22.705Z,18.72
2022-08-05T16:58:49.970Z,18.09
2022-08-05T17:01:16.806Z,17.74
2022-08-05T17:03:45.662Z,20.30
2022-08-05T17:06:12.144Z,21.06
2022-08-05T17:08:52.988Z,20.78
2022-08-05T17:11:25.389Z,21.14
2022-08-05T17:14:05.658Z,21.22
2022-08-05T17:16:38.050Z,20.95
2022-08-05T17:19:09.679Z,20.62
2022-08-05T17:21:39.734Z,21.03
2022-08-05T17:24:14.328Z,19.99
2022-08-05T17:26:56.247Z,18.84
2022-08-05T17:29:34.086Z,17.90
2022-08-05T17:32:17.142Z,17.92
2022-08-05T17:34:46.186Z,17.17
2022-08-05T17:37:39.681Z,16.97
2022-08-05T17:40:01.218Z,16.76
2022-08-05T17:42:31.907Z,16.49
2022-08-05T17:44:59.289Z,16.36
2022-08-05T17:47:27.164Z,16.32
2022-08-05T17:50:03.882Z,16.00
2022-08-05T17:52:35.098Z,15.98
2022-08-05T17:55:20.770Z,15.72
2022-08-05T17:57:50.030Z,16.05
2022-08-05T18:00:16.924Z,16.01
2022-08-05T18:02:43.509Z,15.96
2022-08-05T18:05:10.263Z,15.84
2022-08-05T18:07:44.006Z,15.76
2022-08-05T18:10:20.356Z,15.64
2022-08-05T18:12:47.560Z,15.41
2022-08-05T18:15:14.215Z,15.50
2022-08-05T18:18:01.035Z,15.04
2022-08-05T18:20:29.316Z,15.07
2022-08-05T18:22:59.261Z,14.96
2022-08-05T18:25:35.313Z,15.00
2022-08-05T18:28:05.076Z,15.01
2022-08-05T18:30:33.039Z,15.12
2022-08-05T18:33:00.279Z,15.24
2022-08-05T18:36:00.067Z,15.27
2022-08-05T18:38:16.537Z,15.39
2022-08-05T18:41:57.574Z,15.24
2022-08-05T18:43:38.108Z,15.16
2022-08-05T18:46:09.528Z,14.80
2022-08-05T18:48:41.425Z,14.94
2022-08-05T18:52:05.983Z,14.99
2022-08-05T18:54:13.436Z,14.96
2022-08-05T18:56:40.454Z,14.75
2022-08-05T18:59:43.839Z,14.77
2022-08-05T19:01:57.094Z,14.65
2022-08-05T19:04:25.183Z,14.63
2022-08-05T19:06:51.861Z,14.82
2022-08-05T19:09:20.593Z,14.58
2022-08-05T19:11:59.155Z,14.19
2022-08-05T19:14:44.932Z,14.00
2022-08-05T19:17:13.859Z,14.16
2022-08-05T19:19:46.362Z,14.10
2022-08-05T19:22:17.340Z,14.02
2022-08-05T19:24:54.577Z,14.05
2022-08-05T19:27:23.943Z,13.80
2022-08-05T19:29:51.824Z,13.74
2022-08-05T19:32:18.423Z,13.56
2022-08-05T19:34:54.555Z,13.63
2022-08-05T19:37:34.946Z,13.64
2022-08-05T19:40:10.761Z,13.66
2022-08-05T19:42:38.850Z,13.57
2022-08-05T19:45:07.019Z,13.53
2022-08-05T19:47:37.918Z,13.67
2022-08-05T19:50:07.593Z,13.44
2022-08-05T19:52:37.165Z,13.56
2022-08-05T19:55:07.114Z,13.44
2022-08-05T19:58:06.689Z,13.41
2022-08-05T20:00:38.251Z,13.53
2022-08-05T20:03:08.433Z,13.33
2022-08-05T20:05:43.086Z,13.01
2022-08-05T20:08:17.034Z,12.85
2022-08-05T20:10:43.497Z,12.92
2022-08-05T20:13:10.870Z,13.01
2022-08-05T20:15:52.850Z,12.81
2022-08-05T20:18:33.390Z,13.00
2022-08-05T20:21:04.539Z,12.79
2022-08-05T20:23:39.749Z,12.85
2022-08-05T20:26:21.054Z,12.90
2022-08-05T20:28:50.235Z,12.89
2022-08-05T20:31:17.609Z,12.79
2022-08-05T20:33:48.733Z,12.58
2022-08-05T20:36:16.172Z,12.58
2022-08-05T20:38:54.315Z,12.39
2022-08-05T20:41:27.104Z,12.43
2022-08-05T20:43:58.989Z,12.25
2022-08-05T20:46:28.137Z,12.18
2022-08-05T20:48:54.735Z,12.24
2022-08-05T20:51:21.525Z,12.19
2022-08-05T20:53:56.667Z,12.27
2022-08-05T20:56:28.782Z,12.20
2022-08-05T20:59:00.079Z,12.17
2022-08-05T21:01:39.057Z,12.17
2022-08-05T21:04:10.361Z,12.28
2022-08-05T21:06:45.676Z,12.26
2022-08-05T21:09:14.288Z,12.24
2022-08-05T21:12:07.759Z,12.09
2022-08-05T21:14:29.131Z,12.12
2022-08-05T21:17:01.684Z,11.96
2022-08-05T21:19:29.688Z,12.12
2022-08-05T21:22:14.466Z,12.07
2022-08-05T21:24:40.980Z,12.06
2022-08-05T21:27:09.095Z,11.92
2022-08-05T21:29:40.663Z,12.14
2022-08-05T21:32:07.604Z,11.88
2022-08-05T21:34:35.494Z,12.04
2022-08-05T21:37:02.328Z,12.31
2022-08-05T21:39:29.259Z,12.24
2022-08-05T21:42:01.691Z,12.08
2022-08-05T21:44:29.897Z,11.80
2022-08-05T21:46:58.117Z,11.92
2022-08-05T21:49:58.721Z,12.01
2022-08-05T21:52:22.553Z,12.03
2022-08-05T21:54:55.393Z,12.11
2022-08-05T21:57:37.655Z,12.11
2022-08-05T22:00:11.522Z,12.17
2022-08-05T22:02:38.572Z,12.12
2022-08-05T22:05:06.005Z,12.03
2022-08-05T22:07:54.282Z,11.88
2022-08-05T22:10:25.494Z,11.96
2022-08-05T22:12:54.449Z,11.94
2022-08-05T22:16:01.845Z,11.88
2022-08-05T22:18:11.139Z,11.99
2022-08-05T22:20:38.937Z,12.02
2022-08-05T22:24:02.815Z,11.69
2022-08-05T22:26:41.013Z,11.47
2022-08-05T22:29:07.603Z,11.39
2022-08-05T22:31:45.003Z,11.39
2022-08-05T22:34:12.853Z,11.33
2022-08-05T22:36:52.336Z,11.14
2022-08-05T22:39:21.451Z,11.21
2022-08-05T22:42:09.626Z,11.37
2022-08-05T22:44:34.849Z,11.26
2022-08-05T22:47:04.937Z,11.15
2022-08-05T22:50:18.001Z,11.09
2022-08-05T22:52:30.683Z,11.23
2022-08-05T22:55:00.808Z,11.19
2022-08-05T22:57:27.343Z,11.40
2022-08-05T23:00:04.279Z,11.30
2022-08-05T23:02:30.911Z,11.24
2022-08-05T23:05:01.940Z,11.29
2022-08-05T23:07:32.299Z,11.12
2022-08-05T23:10:01.696Z,11.17
2022-08-05T23:12:32.974Z,11.04
2022-08-05T23:15:08.883Z,11.23
2022-08-05T23:17:37.882Z,11.23
2022-08-05T23:20:23.545Z,10.81
2022-08-05T23:22:55.636Z,10.74
2022-08-05T23:25:52.763Z,10.78
2022-08-05T23:28:09.858Z,10.78
2022-08-05T23:30:39.559Z,10.77
2022-08-05T23:33:07.261Z,10.63
2022-08-05T23:35:45.367Z,10.63
2022-08-05T23:38:12.167Z,10.82
2022-08-05T23:40:40.728Z,10.72
2022-08-05T23:43:24.394Z,10.67
2022-08-05T23:45:55.362Z,10.78
2022-08-05T23:48:22.154Z,10.59
2022-08-05T23:50:51.786Z,10.61
2022-08-05T23:53:22.233Z,10.54
2022-08-05T23:55:49.732Z,10.68
2022-08-05T23:58:31.621Z,10.62
